sensor_id;sensor_type;location;lat;lon;timestamp;temperature;humidity
5286;DHT22;2665;53.112;7.358;2022-11-15T07:42:04;10.90;1.00
5286;DHT22;2665;53.112;7.358;2022-11-15T07:44:48;10.90;1.00
5286;DHT22;2665;53.112;7.358;2022-11-15T07:47:13;10.90;99.90
5286;DHT22;2665;53.112;7.358;2022-11-15T07:49:39;10.90;99.90
5286;DHT22;2665;53.112;7.358;2022-11-15T07:52:05;10.90;99.90
5286;DHT22;2665;53.112;7.358;2022-11-15T07:54:30;10.90;99.90
5286;DHT22;2665;53.112;7.358;2022-11-15T07:56:56;11.00;99.90
5286;DHT22;2665;53.112;7.358;2022-11-15T07:59:22;11.00;57.60
5286;DHT22;2665;53.112;7.358;2022-11-15T08:01:48;11.00;1.00
5286;DHT22;2665;53.112;7.358;2022-11-15T08:04:14;11.00;1.00
5286;DHT22;2665;53.112;7.358;2022-11-15T08:06:39;11.00;1.00
5286;DHT22;2665;53.112;7.358;2022-11-15T08:09:05;11.10;1.00
5286;DHT22;2665;53.112;7.358;2022-11-15T08:11:30;11.10;1.00
5286;DHT22;2665;53.112;7.358;2022-11-15T08:13:56;11.20;1.00
5286;DHT22;2665;53.112;7.358;2022-11-15T08:16:22;11.20;99.90
5286;DHT22;2665;53.112;7.358;2022-11-15T08:18:47;11.20;99.90
5286;DHT22;2665;53.112;7.358;2022-11-15T08:21:17;11.20;99.90
5286;DHT22;2665;53.112;7.358;2022-11-15T08:23:43;11.20;99.90
5286;DHT22;2665;53.112;7.358;2022-11-15T08:26:09;11.30;57.70
5286;DHT22;2665;53.112;7.358;2022-11-15T08:28:34;11.30;1.00
5286;DHT22;2665;53.112;7.358;2022-11-15T08:31:00;11.30;1.00
5286;DHT22;2665;53.112;7.358;2022-11-15T08:33:27;11.40;1.00
5286;DHT22;2665;53.112;7.358;2022-11-15T08:35:59;11.40;99.90
5286;DHT22;2665;53.112;7.358;2022-11-15T08:38:25;11.40;1.00
5286;DHT22;2665;53.112;7.358;2022-11-15T08:41:00;11.40;1.00
5286;DHT22;2665;53.112;7.358;2022-11-15T08:43:26;11.40;1.00
5286;DHT22;2665;53.112;7.358;2022-11-15T08:45:55;11.40;1.00
5286;DHT22;2665;53.112;7.358;2022-11-15T08:48:21;11.50;1.00
5286;DHT22;2665;53.112;7.358;2022-11-15T08:50:47;11.50;1.00
5286;DHT22;2665;53.112;7.358;2022-11-15T08:53:12;11.50;1.00
5286;DHT22;2665;53.112;7.358;2022-11-15T08:55:38;11.50;1.00
5286;DHT22;2665;53.112;7.358;2022-11-15T08:58:05;11.60;1.00
5286;DHT22;2665;53.112;7.358;2022-11-15T09:00:30;11.60;1.00
5286;DHT22;2665;53.112;7.358;2022-11-15T09:02:56;11.60;99.90
5286;DHT22;2665;53.112;7.358;2022-11-15T09:05:21;11.60;99.90
5286;DHT22;2665;53.112;7.358;2022-11-15T09:07:47;11.60;99.90
5286;DHT22;2665;53.112;7.358;2022-11-15T09:10:13;11.70;99.90
5286;DHT22;2665;53.112;7.358;2022-11-15T09:12:38;11.70;99.90
5286;DHT22;2665;53.112;7.358;2022-11-15T09:15:05;11.70;99.90
5286;DHT22;2665;53.112;7.358;2022-11-15T09:17:31;11.70;99.90
5286;DHT22;2665;53.112;7.358;2022-11-15T09:19:57;11.70;99.90
5286;DHT22;2665;53.112;7.358;2022-11-15T09:22:22;11.70;99.90
5286;DHT22;2665;53.112;7.358;2022-11-15T09:24:48;11.70;99.90
5286;DHT22;2665;53.112;7.358;2022-11-15T09:27:13;11.80;99.90
5286;DHT22;2665;53.112;7.358;2022-11-15T09:29:39;11.80;99.90
5286;DHT22;2665;53.112;7.358;2022-11-15T09:32:05;11.80;27.10
5286;DHT22;2665;53.112;7.358;2022-11-15T09:34:31;11.70;1.00
5286;DHT22;2665;53.112;7.358;2022-11-15T09:36:56;11.70;91.00
5286;DHT22;2665;53.112;7.358;2022-11-15T09:39:22;11.70;99.90
5286;DHT22;2665;53.112;7.358;2022-11-15T09:53:03;11.60;1.00
5286;DHT22;2665;53.112;7.358;2022-11-15T09:55:40;11.60;99.90
5286;DHT22;2665;53.112;7.358;2022-11-15T09:58:26;11.60;1.00
5286;DHT22;2665;53.112;7.358;2022-11-15T10:00:53;11.70;1.00
5286;DHT22;2665;53.112;7.358;2022-11-15T10:03:36;11.60;1.00
5286;DHT22;2665;53.112;7.358;2022-11-15T10:06:04;11.70;99.90
5286;DHT22;2665;53.112;7.358;2022-11-15T10:11:10;11.70;1.00
5286;DHT22;2665;53.112;7.358;2022-11-15T10:13:41;11.70;1.00
5286;DHT22;2665;53.112;7.358;2022-11-15T10:22:26;11.60;1.00
5286;DHT22;2665;53.112;7.358;2022-11-15T10:25:17;11.60;1.00
5286;DHT22;2665;53.112;7.358;2022-11-15T10:27:45;11.60;1.00
5286;DHT22;2665;53.112;7.358;2022-11-15T10:30:16;11.70;1.00
5286;DHT22;2665;53.112;7.358;2022-11-15T10:32:44;11.70;1.00
5286;DHT22;2665;53.112;7.358;2022-11-15T10:35:27;11.70;14.90
5286;DHT22;2665;53.112;7.358;2022-11-15T10:38:07;11.70;76.20
5286;DHT22;2665;53.112;7.358;2022-11-15T10:40:34;11.80;99.90
5286;DHT22;2665;53.112;7.358;2022-11-15T10:43:16;11.80;99.90
5286;DHT22;2665;53.112;7.358;2022-11-15T10:45:42;11.90;99.90
5286;DHT22;2665;53.112;7.358;2022-11-15T10:50:37;11.90;99.90
5286;DHT22;2665;53.112;7.358;2022-11-15T10:53:04;11.90;99.90
5286;DHT22;2665;53.112;7.358;2022-11-15T10:55:40;12.00;99.90
5286;DHT22;2665;53.112;7.358;2022-11-15T10:59:02;12.00;99.90
5286;DHT22;2665;53.112;7.358;2022-11-15T11:01:21;12.00;76.40
5286;DHT22;2665;53.112;7.358;2022-11-15T11:04:02;12.10;97.80
5286;DHT22;2665;53.112;7.358;2022-11-15T11:06:28;12.10;75.90
5286;DHT22;2665;53.112;7.358;2022-11-15T11:11:23;12.10;99.90
5286;DHT22;2665;53.112;7.358;2022-11-15T11:13:49;12.20;76.50
5286;DHT22;2665;53.112;7.358;2022-11-15T11:16:33;12.20;26.60
5286;DHT22;2665;53.112;7.358;2022-11-15T11:19:28;12.20;99.90
5286;DHT22;2665;53.112;7.358;2022-11-15T11:27:55;12.50;27.00
5286;DHT22;2665;53.112;7.358;2022-11-15T11:30:58;12.60;1.00
5286;DHT22;2665;53.112;7.358;2022-11-15T11:36:34;12.90;1.00
5286;DHT22;2665;53.112;7.358;2022-11-15T11:39:33;13.20;99.90
5286;DHT22;2665;53.112;7.358;2022-11-15T15:13:53;12.40;99.90
5286;DHT22;2665;53.112;7.358;2022-11-15T15:16:21;12.40;99.90
5286;DHT22;2665;53.112;7.358;2022-11-15T15:18:47;12.20;99.90
5286;DHT22;2665;53.112;7.358;2022-11-15T15:21:27;12.10;99.90
5286;DHT22;2665;53.112;7.358;2022-11-15T15:23:53;11.90;99.90
5286;DHT22;2665;53.112;7.358;2022-11-15T15:26:21;11.80;99.90
5286;DHT22;2665;53.112;7.358;2022-11-15T15:28:48;11.70;99.90
5286;DHT22;2665;53.112;7.358;2022-11-15T15:31:17;11.50;1.00
5286;DHT22;2665;53.112;7.358;2022-11-15T15:33:43;11.40;1.00
5286;DHT22;2665;53.112;7.358;2022-11-15T15:36:11;11.30;1.00
5286;DHT22;2665;53.112;7.358;2022-11-15T15:38:37;11.20;1.00
5286;DHT22;2665;53.112;7.358;2022-11-15T15:41:11;11.10;1.00
5286;DHT22;2665;53.112;7.358;2022-11-15T15:43:37;11.00;1.00
5286;DHT22;2665;53.112;7.358;2022-11-15T15:46:03;10.90;1.00
5286;DHT22;2665;53.112;7.358;2022-11-15T15:48:28;10.80;1.00
5286;DHT22;2665;53.112;7.358;2022-11-15T15:50:54;10.70;1.00
5286;DHT22;2665;53.112;7.358;2022-11-15T15:53:20;10.60;1.00
5286;DHT22;2665;53.112;7.358;2022-11-15T15:55:45;10.60;1.00
5286;DHT22;2665;53.112;7.358;2022-11-15T15:58:11;10.50;1.00
5286;DHT22;2665;53.112;7.358;2022-11-15T16:00:36;10.40;40.30
5286;DHT22;2665;53.112;7.358;2022-11-15T16:03:02;10.40;52.30
5286;DHT22;2665;53.112;7.358;2022-11-15T16:05:28;10.30;82.60
5286;DHT22;2665;53.112;7.358;2022-11-15T16:07:54;10.20;99.90
5286;DHT22;2665;53.112;7.358;2022-11-15T16:10:25;10.20;99.90
5286;DHT22;2665;53.112;7.358;2022-11-15T16:12:52;10.10;99.90
5286;DHT22;2665;53.112;7.358;2022-11-15T16:15:19;10.00;99.90
5286;DHT22;2665;53.112;7.358;2022-11-15T16:17:53;10.00;99.90
5286;DHT22;2665;53.112;7.358;2022-11-15T16:20:30;9.90;99.90
5286;DHT22;2665;53.112;7.358;2022-11-15T16:22:56;9.90;99.90
5286;DHT22;2665;53.112;7.358;2022-11-15T16:25:22;9.80;99.90
5286;DHT22;2665;53.112;7.358;2022-11-15T16:27:48;9.80;99.90
5286;DHT22;2665;53.112;7.358;2022-11-15T16:30:20;9.80;1.00
5286;DHT22;2665;53.112;7.358;2022-11-15T16:32:46;9.80;1.00
5286;DHT22;2665;53.112;7.358;2022-11-15T16:35:12;9.80;1.00
5286;DHT22;2665;53.112;7.358;2022-11-15T16:37:39;9.80;1.00
5286;DHT22;2665;53.112;7.358;2022-11-15T16:40:29;9.80;1.00
5286;DHT22;2665;53.112;7.358;2022-11-15T16:42:58;9.80;1.00
5286;DHT22;2665;53.112;7.358;2022-11-15T16:45:28;9.80;1.00
5286;DHT22;2665;53.112;7.358;2022-11-15T16:47:55;9.80;1.00
5286;DHT22;2665;53.112;7.358;2022-11-15T16:50:26;9.70;1.00
5286;DHT22;2665;53.112;7.358;2022-11-15T16:52:53;9.70;1.00
5286;DHT22;2665;53.112;7.358;2022-11-15T16:55:20;9.70;1.00
5286;DHT22;2665;53.112;7.358;2022-11-15T16:57:46;9.70;1.00
5286;DHT22;2665;53.112;7.358;2022-11-15T17:00:13;9.60;1.00
5286;DHT22;2665;53.112;7.358;2022-11-15T17:02:46;9.60;1.00
5286;DHT22;2665;53.112;7.358;2022-11-15T17:05:12;9.60;1.00
5286;DHT22;2665;53.112;7.358;2022-11-15T17:07:39;9.60;1.00
5286;DHT22;2665;53.112;7.358;2022-11-15T17:10:06;9.50;1.00
5286;DHT22;2665;53.112;7.358;2022-11-15T17:12:33;9.50;1.00
5286;DHT22;2665;53.112;7.358;2022-11-15T17:14:59;9.40;1.00
5286;DHT22;2665;53.112;7.358;2022-11-15T17:17:24;9.40;1.00
5286;DHT22;2665;53.112;7.358;2022-11-15T17:19:51;9.40;1.00
5286;DHT22;2665;53.112;7.358;2022-11-15T17:22:18;9.30;1.00
5286;DHT22;2665;53.112;7.358;2022-11-15T17:24:43;9.30;1.00
5286;DHT22;2665;53.112;7.358;2022-11-15T17:27:09;9.30;1.00
5286;DHT22;2665;53.112;7.358;2022-11-15T17:29:34;9.30;1.00
5286;DHT22;2665;53.112;7.358;2022-11-15T17:32:00;9.30;1.00
5286;DHT22;2665;53.112;7.358;2022-11-15T17:34:26;9.30;1.00
5286;DHT22;2665;53.112;7.358;2022-11-15T17:36:51;9.30;14.80
5286;DHT22;2665;53.112;7.358;2022-11-15T17:39:17;9.30;14.70
5286;DHT22;2665;53.112;7.358;2022-11-15T17:41:48;9.40;68.40
5286;DHT22;2665;53.112;7.358;2022-11-15T17:44:13;9.40;75.20
5286;DHT22;2665;53.112;7.358;2022-11-15T17:46:39;9.40;58.40
5286;DHT22;2665;53.112;7.358;2022-11-15T17:49:05;9.40;47.30
5286;DHT22;2665;53.112;7.358;2022-11-15T17:51:31;9.40;65.10
5286;DHT22;2665;53.112;7.358;2022-11-15T17:53:57;9.40;14.70
5286;DHT22;2665;53.112;7.358;2022-11-15T17:56:25;9.50;41.80
5286;DHT22;2665;53.112;7.358;2022-11-15T17:58:56;9.50;18.80
5286;DHT22;2665;53.112;7.358;2022-11-15T18:01:31;9.50;14.60
5286;DHT22;2665;53.112;7.358;2022-11-15T18:03:59;9.50;15.00
5286;DHT22;2665;53.112;7.358;2022-11-15T18:06:27;9.50;15.00
5286;DHT22;2665;53.112;7.358;2022-11-15T18:08:55;9.50;1.00
5286;DHT22;2665;53.112;7.358;2022-11-15T18:11:25;9.50;1.00
5286;DHT22;2665;53.112;7.358;2022-11-15T18:13:57;9.50;15.00
5286;DHT22;2665;53.112;7.358;2022-11-15T18:16:26;9.50;14.80
5286;DHT22;2665;53.112;7.358;2022-11-15T18:18:53;9.60;14.90
5286;DHT22;2665;53.112;7.358;2022-11-15T18:21:27;9.60;10.20
5286;DHT22;2665;53.112;7.358;2022-11-15T18:23:54;9.60;15.00
5286;DHT22;2665;53.112;7.358;2022-11-15T18:26:22;9.60;26.30
5286;DHT22;2665;53.112;7.358;2022-11-15T18:28:52;9.70;88.10
5286;DHT22;2665;53.112;7.358;2022-11-15T18:31:20;9.80;97.10
5286;DHT22;2665;53.112;7.358;2022-11-15T18:33:47;9.80;94.80
5286;DHT22;2665;53.112;7.358;2022-11-15T18:36:16;9.90;92.60
5286;DHT22;2665;53.112;7.358;2022-11-15T18:38:42;9.90;99.70
5286;DHT22;2665;53.112;7.358;2022-11-15T18:43:37;10.00;88.50
5286;DHT22;2665;53.112;7.358;2022-11-15T18:48:31;10.10;84.40
5286;DHT22;2665;53.112;7.358;2022-11-15T18:53:27;10.10;52.20
5286;DHT22;2665;53.112;7.358;2022-11-15T18:55:52;10.10;60.50
5286;DHT22;2665;53.112;7.358;2022-11-15T18:58:18;10.10;99.90
5286;DHT22;2665;53.112;7.358;2022-11-15T19:00:44;10.10;99.90
5286;DHT22;2665;53.112;7.358;2022-11-15T19:03:09;10.10;99.90
5286;DHT22;2665;53.112;7.358;2022-11-15T19:05:35;10.10;99.90
5286;DHT22;2665;53.112;7.358;2022-11-15T19:08:00;10.20;99.90
5286;DHT22;2665;53.112;7.358;2022-11-15T19:10:26;10.20;99.90
5286;DHT22;2665;53.112;7.358;2022-11-15T19:12:51;10.20;99.90
5286;DHT22;2665;53.112;7.358;2022-11-15T19:15:18;10.30;99.90
5286;DHT22;2665;53.112;7.358;2022-11-15T19:17:44;10.30;99.90
5286;DHT22;2665;53.112;7.358;2022-11-15T19:20:10;10.40;99.90
5286;DHT22;2665;53.112;7.358;2022-11-15T19:22:35;10.40;99.90
5286;DHT22;2665;53.112;7.358;2022-11-15T19:25:01;10.40;99.90
5286;DHT22;2665;53.112;7.358;2022-11-15T19:27:29;10.50;99.90
5286;DHT22;2665;53.112;7.358;2022-11-15T19:29:54;10.50;99.90
5286;DHT22;2665;53.112;7.358;2022-11-15T19:32:20;10.50;99.90
5286;DHT22;2665;53.112;7.358;2022-11-15T19:34:46;10.50;99.90
5286;DHT22;2665;53.112;7.358;2022-11-15T19:37:12;10.50;99.90
5286;DHT22;2665;53.112;7.358;2022-11-15T19:39:37;10.60;99.90
5286;DHT22;2665;53.112;7.358;2022-11-15T19:42:03;10.60;99.90
5286;DHT22;2665;53.112;7.358;2022-11-15T19:44:28;10.60;98.70
5286;DHT22;2665;53.112;7.358;2022-11-15T19:46:54;10.60;94.10
5286;DHT22;2665;53.112;7.358;2022-11-15T19:49:20;10.60;94.20
5286;DHT22;2665;53.112;7.358;2022-11-15T19:51:46;10.60;99.10
5286;DHT22;2665;53.112;7.358;2022-11-15T19:54:12;10.60;99.90
5286;DHT22;2665;53.112;7.358;2022-11-15T19:56:40;10.70;96.40
5286;DHT22;2665;53.112;7.358;2022-11-15T19:59:06;10.70;90.50
5286;DHT22;2665;53.112;7.358;2022-11-15T20:01:34;10.70;97.80
5286;DHT22;2665;53.112;7.358;2022-11-15T20:04:00;10.80;86.00
5286;DHT22;2665;53.112;7.358;2022-11-15T20:06:28;10.80;96.60
5286;DHT22;2665;53.112;7.358;2022-11-15T20:08:54;10.80;60.00
5286;DHT22;2665;53.112;7.358;2022-11-15T20:11:20;10.80;26.10
5286;DHT22;2665;53.112;7.358;2022-11-15T20:13:45;10.80;33.40
5286;DHT22;2665;53.112;7.358;2022-11-15T20:16:19;10.80;21.80
5286;DHT22;2665;53.112;7.358;2022-11-15T20:18:46;10.80;50.10
5286;DHT22;2665;53.112;7.358;2022-11-15T20:21:12;10.80;86.50
5286;DHT22;2665;53.112;7.358;2022-11-15T20:23:38;10.80;99.90
5286;DHT22;2665;53.112;7.358;2022-11-15T20:26:05;10.80;99.90
5286;DHT22;2665;53.112;7.358;2022-11-15T20:28:30;10.90;92.10
5286;DHT22;2665;53.112;7.358;2022-11-15T20:30:58;10.90;98.50
5286;DHT22;2665;53.112;7.358;2022-11-15T20:33:25;10.90;99.90
5286;DHT22;2665;53.112;7.358;2022-11-15T20:35:50;11.00;71.50
5286;DHT22;2665;53.112;7.358;2022-11-15T20:38:16;11.00;95.30
5286;DHT22;2665;53.112;7.358;2022-11-15T20:40:45;11.00;82.40
5286;DHT22;2665;53.112;7.358;2022-11-15T20:43:13;11.10;72.80
5286;DHT22;2665;53.112;7.358;2022-11-15T20:45:41;11.10;36.80
5286;DHT22;2665;53.112;7.358;2022-11-15T20:48:10;11.00;36.30
5286;DHT22;2665;53.112;7.358;2022-11-15T20:50:39;11.10;25.60
5286;DHT22;2665;53.112;7.358;2022-11-15T20:53:04;11.00;15.40
5286;DHT22;2665;53.112;7.358;2022-11-15T20:55:30;11.10;27.10
5286;DHT22;2665;53.112;7.358;2022-11-15T20:57:55;11.10;65.80
5286;DHT22;2665;53.112;7.358;2022-11-15T21:00:21;11.10;97.80
5286;DHT22;2665;53.112;7.358;2022-11-15T21:02:50;11.10;99.30
5286;DHT22;2665;53.112;7.358;2022-11-15T21:05:16;11.10;99.90
5286;DHT22;2665;53.112;7.358;2022-11-15T21:07:42;11.10;99.90
5286;DHT22;2665;53.112;7.358;2022-11-15T21:10:08;11.10;99.90
5286;DHT22;2665;53.112;7.358;2022-11-15T21:12:52;11.10;99.90
5286;DHT22;2665;53.112;7.358;2022-11-15T21:15:18;11.10;99.90
5286;DHT22;2665;53.112;7.358;2022-11-15T21:17:43;11.10;99.90
5286;DHT22;2665;53.112;7.358;2022-11-15T21:20:09;11.10;99.90
5286;DHT22;2665;53.112;7.358;2022-11-15T21:22:35;11.10;99.90
5286;DHT22;2665;53.112;7.358;2022-11-15T21:25:01;11.10;99.90
5286;DHT22;2665;53.112;7.358;2022-11-15T21:27:27;11.10;99.90
5286;DHT22;2665;53.112;7.358;2022-11-15T21:29:52;11.10;99.90
5286;DHT22;2665;53.112;7.358;2022-11-15T21:32:18;11.10;99.90
5286;DHT22;2665;53.112;7.358;2022-11-15T21:34:44;11.10;99.90
5286;DHT22;2665;53.112;7.358;2022-11-15T21:37:09;11.10;99.90
5286;DHT22;2665;53.112;7.358;2022-11-15T21:39:36;11.20;99.90
5286;DHT22;2665;53.112;7.358;2022-11-15T21:42:01;11.10;99.90
5286;DHT22;2665;53.112;7.358;2022-11-15T21:44:27;11.20;99.90
5286;DHT22;2665;53.112;7.358;2022-11-15T21:46:53;11.20;99.90
5286;DHT22;2665;53.112;7.358;2022-11-15T21:49:18;11.20;99.90
5286;DHT22;2665;53.112;7.358;2022-11-15T21:51:45;11.20;99.90
5286;DHT22;2665;53.112;7.358;2022-11-15T21:54:10;11.20;99.90
5286;DHT22;2665;53.112;7.358;2022-11-15T21:56:36;11.20;1.00
5286;DHT22;2665;53.112;7.358;2022-11-15T21:59:02;11.20;1.00
5286;DHT22;2665;53.112;7.358;2022-11-15T22:01:28;11.30;1.00
5286;DHT22;2665;53.112;7.358;2022-11-15T22:04:13;11.30;1.00
5286;DHT22;2665;53.112;7.358;2022-11-15T22:06:39;11.30;1.00
5286;DHT22;2665;53.112;7.358;2022-11-15T22:09:05;11.30;1.00
5286;DHT22;2665;53.112;7.358;2022-11-15T22:11:31;11.30;1.00
5286;DHT22;2665;53.112;7.358;2022-11-15T22:13:57;11.30;1.00
5286;DHT22;2665;53.112;7.358;2022-11-15T22:16:23;11.30;1.00
5286;DHT22;2665;53.112;7.358;2022-11-15T22:18:49;11.30;1.00
5286;DHT22;2665;53.112;7.358;2022-11-15T22:21:16;11.30;1.00
5286;DHT22;2665;53.112;7.358;2022-11-15T22:23:42;11.30;1.00
5286;DHT22;2665;53.112;7.358;2022-11-15T22:26:11;11.30;1.00
5286;DHT22;2665;53.112;7.358;2022-11-15T22:28:37;11.30;1.00
5286;DHT22;2665;53.112;7.358;2022-11-15T22:31:03;11.30;1.00
5286;DHT22;2665;53.112;7.358;2022-11-15T22:33:30;11.30;1.00
5286;DHT22;2665;53.112;7.358;2022-11-15T22:35:56;11.30;99.90
5286;DHT22;2665;53.112;7.358;2022-11-15T22:38:23;11.30;99.90
5286;DHT22;2665;53.112;7.358;2022-11-15T22:40:49;11.20;99.90
5286;DHT22;2665;53.112;7.358;2022-11-15T22:43:17;11.20;99.90
5286;DHT22;2665;53.112;7.358;2022-11-15T22:48:12;11.20;99.90
5286;DHT22;2665;53.112;7.358;2022-11-15T22:50:38;11.10;1.00
5286;DHT22;2665;53.112;7.358;2022-11-15T22:53:03;11.10;1.00
5286;DHT22;2665;53.112;7.358;2022-11-15T22:55:29;11.10;1.00
5286;DHT22;2665;53.112;7.358;2022-11-15T22:57:54;11.10;1.00
5286;DHT22;2665;53.112;7.358;2022-11-15T23:00:20;11.10;1.00
5286;DHT22;2665;53.112;7.358;2022-11-15T23:02:46;11.10;1.00
5286;DHT22;2665;53.112;7.358;2022-11-15T23:05:11;11.10;1.00
5286;DHT22;2665;53.112;7.358;2022-11-15T23:07:37;11.10;1.00
5286;DHT22;2665;53.112;7.358;2022-11-15T23:10:03;11.00;57.20
5286;DHT22;2665;53.112;7.358;2022-11-15T23:12:48;11.10;99.90
5286;DHT22;2665;53.112;7.358;2022-11-15T23:15:33;11.00;99.90
5286;DHT22;2665;53.112;7.358;2022-11-15T23:18:27;11.00;99.90
5286;DHT22;2665;53.112;7.358;2022-11-15T23:20:54;11.00;99.90
5286;DHT22;2665;53.112;7.358;2022-11-15T23:23:20;11.00;99.90
5286;DHT22;2665;53.112;7.358;2022-11-15T23:25:45;10.90;99.90
5286;DHT22;2665;53.112;7.358;2022-11-15T23:28:11;10.90;1.00
5286;DHT22;2665;53.112;7.358;2022-11-15T23:30:37;10.90;1.00
5286;DHT22;2665;53.112;7.358;2022-11-15T23:33:22;10.90;1.00
5286;DHT22;2665;53.112;7.358;2022-11-15T23:36:06;10.80;15.00
5286;DHT22;2665;53.112;7.358;2022-11-15T23:38:33;10.80;99.90
5286;DHT22;2665;53.112;7.358;2022-11-15T23:41:02;10.80;1.00
5286;DHT22;2665;53.112;7.358;2022-11-15T23:43:28;10.80;1.00
5286;DHT22;2665;53.112;7.358;2022-11-15T23:45:54;10.80;99.90
